.
WxDataArchive / Data Records for 2007-09-07
2007-09-06 September 2007 2007-09-08

Data Records for Friday, 07 September 2007

Time	Temp	Chill	HIndex	Humid	Dewpt	 Wind 	HiWind	WindDir	Rain 	Barom 
-----	----	-----	------	-----	-----	------	------	-------	-----	----- 
00:00	71.3	71.3	71.3	74	62.6	0	1	248	0.00	29.937 
00:05	71.3	71.3	71.3	75	63.0	0	1	248	0.00	29.935 
00:10	71.1	71.1	71.1	75	62.8	0	3	292	0.00	29.934 
00:15	71.1	71.1	71.1	76	63.1	0	0	---	0.00	29.934 
00:20	70.9	70.9	70.9	76	62.9	0	1	292	0.00	29.934 
00:25	70.8	70.8	70.8	77	63.2	0	2	292	0.00	29.934 
00:30	70.8	70.8	70.8	77	63.2	0	2	292	0.00	29.935 
00:35	70.8	70.8	70.8	77	63.2	0	2	292	0.00	29.933 
00:40	70.9	70.9	70.9	77	63.3	0	1	292	0.00	29.930 
00:45	70.9	70.9	70.9	76	62.9	0	1	292	0.00	29.931 
00:50	70.9	70.9	70.9	76	62.9	0	1	292	0.00	29.932 
00:55	70.9	70.9	70.9	77	63.3	0	2	338	0.00	29.931 
01:00	70.8	70.8	70.8	77	63.2	0	1	338	0.00	29.926 
01:05	70.8	70.8	70.8	77	63.2	0	1	338	0.00	29.927 
01:10	70.8	70.8	70.8	77	63.2	0	1	338	0.00	29.923 
01:15	70.8	70.8	70.8	77	63.2	0	2	90	0.00	29.922 
01:20	70.8	70.8	70.8	76	62.8	0	2	90	0.00	29.924 
01:25	70.9	70.9	70.9	76	62.9	0	3	248	0.00	29.923 
01:30	70.9	70.9	70.9	76	62.9	0	1	225	0.00	29.923 
01:35	71.1	71.1	71.1	76	63.1	0	3	270	0.00	29.923 
01:40	71.1	71.1	71.1	76	63.1	0	1	270	0.00	29.921 
01:45	71.3	71.3	71.3	75	63.0	0	2	0	0.00	29.921 
01:50	71.5	71.5	71.5	75	63.1	0	3	270	0.00	29.921 
01:55	71.6	71.6	71.6	75	63.2	1	3	248	0.00	29.922 
02:00	72.0	72.0	72.0	74	63.2	1	3	270	0.00	29.921 
02:05	72.0	72.0	72.0	74	63.2	0	2	0	0.00	29.919 
02:10	72.1	72.1	72.1	74	63.3	0	4	248	0.00	29.920 
02:15	72.1	72.1	72.1	73	63.0	0	4	22	0.00	29.919 
02:20	72.1	72.1	72.1	74	63.3	0	3	22	0.00	29.919 
02:25	72.3	72.3	72.3	73	63.1	0	2	248	0.00	29.921 
02:30	72.3	72.3	72.3	73	63.1	0	3	248	0.00	29.923 
02:35	72.3	72.3	72.3	73	63.1	1	4	248	0.00	29.923 
02:40	72.3	72.3	72.3	73	63.1	0	2	248	0.00	29.922 
02:45	72.3	72.3	72.3	73	63.1	0	2	248	0.00	29.922 
02:50	72.1	72.1	72.1	73	63.0	0	3	248	0.00	29.924 
02:55	72.1	72.1	72.1	73	63.0	1	4	248	0.00	29.924 
03:00	72.3	72.3	72.3	73	63.1	1	4	248	0.00	29.921 
03:05	72.3	72.3	72.3	73	63.1	0	1	248	0.00	29.921 
03:10	72.5	72.5	72.5	73	63.3	0	3	248	0.00	29.918 
03:15	72.7	72.7	72.7	73	63.5	1	5	225	0.00	29.916 
03:20	72.8	72.8	72.8	72	63.2	1	5	248	0.00	29.917 
03:25	72.8	72.8	72.8	72	63.2	0	3	248	0.00	29.918 
03:30	73.0	73.0	73.0	72	63.4	1	4	270	0.00	29.917 
03:35	73.0	73.0	73.0	72	63.4	1	2	292	0.00	29.917 
03:40	73.0	73.0	73.0	72	63.4	0	2	315	0.00	29.917 
03:45	72.8	72.8	72.8	72	63.2	0	1	315	0.00	29.917 
03:50	72.7	72.7	72.7	73	63.5	0	1	315	0.00	29.915 
03:55	72.7	72.7	72.7	73	63.5	0	4	225	0.00	29.916 
04:00	72.7	72.7	72.7	73	63.5	0	1	22	0.00	29.916 
04:05	72.7	72.7	72.7	73	63.5	0	2	22	0.00	29.919 
04:10	72.5	72.5	72.5	73	63.3	0	2	292	0.00	29.919 
04:15	72.3	72.3	72.3	74	63.5	0	2	292	0.00	29.918 
04:20	72.3	72.3	72.3	74	63.5	0	1	338	0.00	29.917 
04:25	72.1	72.1	72.1	74	63.3	0	1	338	0.00	29.917 
04:30	72.0	72.0	72.0	74	63.2	0	2	338	0.00	29.916 
04:35	72.0	72.0	72.0	74	63.2	0	2	0	0.00	29.914 
04:40	72.0	72.0	72.0	74	63.2	0	3	45	0.00	29.917 
04:45	71.8	71.8	71.8	75	63.4	0	1	45	0.00	29.918 
04:50	71.6	71.6	71.6	75	63.2	0	1	45	0.00	29.918 
04:55	71.5	71.5	71.5	76	63.5	0	2	45	0.00	29.916 
05:00	71.5	71.5	71.5	76	63.5	1	3	68	0.00	29.916 
05:05	71.3	71.3	71.3	77	63.7	0	3	68	0.00	29.920 
05:10	71.1	71.1	71.1	77	63.5	1	3	68	0.00	29.919 
05:15	71.1	71.1	71.1	78	63.9	0	2	90	0.00	29.919 
05:20	70.9	70.9	70.9	79	64.1	0	1	90	0.00	29.918 
05:25	70.8	70.8	70.8	80	64.3	1	3	90	0.00	29.918 
05:30	70.8	70.8	70.8	80	64.3	0	3	90	0.00	29.917 
05:35	70.6	70.6	70.6	81	64.5	0	2	90	0.00	29.918 
05:40	70.8	70.8	70.8	81	64.7	1	6	90	0.00	29.920 
05:45	70.8	70.8	70.8	81	64.7	1	6	90	0.00	29.916 
05:50	70.8	70.8	70.8	81	64.7	1	3	45	0.00	29.909 
05:55	70.9	70.9	70.9	81	64.8	1	5	68	0.00	29.907 
06:00	70.9	70.9	70.9	81	64.8	1	4	68	0.00	29.905 
06:05	71.1	71.1	71.1	80	64.6	1	4	292	0.00	29.907 
06:10	71.3	71.3	71.3	80	64.8	1	3	248	0.00	29.909 
06:15	71.5	71.5	71.5	80	65.0	2	5	270	0.00	29.910 
06:20	71.8	71.8	71.8	79	64.9	2	6	248	0.00	29.910 
06:25	72.0	72.0	72.0	79	65.1	1	4	248	0.00	29.907 
06:30	72.1	72.1	72.1	79	65.2	1	4	270	0.00	29.907 
06:35	72.3	72.3	72.3	78	65.0	2	7	292	0.00	29.907 
06:40	72.5	72.5	72.5	77	64.9	2	7	270	0.00	29.908 
06:45	72.8	72.8	72.8	77	65.2	1	5	270	0.00	29.908 
06:50	73.0	73.0	73.0	77	65.3	2	7	248	0.00	29.911 
06:55	73.3	73.3	73.3	76	65.3	2	5	248	0.00	29.913 
07:00	73.3	73.3	73.3	76	65.3	1	5	22	0.00	29.912 
07:05	73.7	73.7	73.7	76	65.6	2	5	248	0.00	29.913 
07:10	74.0	74.0	74.0	75	65.6	4	10	270	0.00	29.912 
07:15	74.2	74.2	74.2	77	66.5	3	10	248	0.00	29.913 
07:20	73.2	73.2	73.2	81	67.0	4	12	270	0.02	29.913 
07:25	72.0	72.0	72.0	84	66.9	3	10	270	0.01	29.921 
07:30	71.1	71.1	71.1	87	67.0	2	9	248	0.02	29.912 
07:35	70.6	70.6	70.6	90	67.5	2	7	248	0.04	29.918 
07:40	70.3	70.3	70.3	91	67.5	1	5	270	0.08	29.908 
07:45	70.1	70.1	70.1	92	67.7	1	3	248	0.03	29.896 
07:50	70.1	70.1	70.1	93	68.0	2	10	90	0.02	29.893 
07:55	70.1	70.1	70.1	94	68.3	1	4	68	0.01	29.893 
08:00	69.9	69.9	69.9	94	68.1	1	4	270	0.02	29.891 
08:05	69.9	69.9	69.9	94	68.1	1	5	292	0.01	29.894 
08:10	69.8	69.8	69.8	95	68.3	2	6	248	0.01	29.894 
08:15	69.8	69.8	69.8	95	68.3	1	4	45	0.05	29.888 
08:20	69.6	69.6	69.6	95	68.1	2	6	248	0.01	29.894 
08:25	69.4	69.4	69.4	95	67.9	2	6	248	0.06	29.893 
08:30	69.6	69.6	69.6	95	68.1	1	5	68	0.01	29.886 
08:35	69.6	69.6	69.6	95	68.1	2	8	90	0.00	29.884 
08:40	69.9	69.9	69.9	95	68.4	2	5	68	0.00	29.887 
08:45	70.3	70.3	70.3	95	68.8	1	4	315	0.00	29.890 
08:50	70.4	70.4	70.4	94	68.6	1	4	68	0.00	29.891 
08:55	70.8	70.8	70.8	94	69.0	1	4	90	0.00	29.889 
09:00	70.9	70.9	70.9	93	68.8	2	5	270	0.00	29.890 
09:05	71.3	71.3	71.3	93	69.2	1	4	90	0.00	29.882 
09:10	71.5	71.5	71.5	92	69.0	1	7	22	0.00	29.886 
09:15	71.6	71.6	71.6	92	69.1	1	5	248	0.00	29.885 
09:20	72.1	72.1	72.1	92	69.6	1	4	270	0.00	29.885 
09:25	72.3	72.3	72.3	90	69.2	2	5	270	0.00	29.880 
09:30	72.7	72.7	72.7	89	69.3	1	5	248	0.00	29.877 
09:35	72.7	72.7	72.7	88	68.9	2	7	248	0.00	29.876 
09:40	73.0	73.0	73.0	88	69.2	1	5	270	0.00	29.875 
09:45	73.3	73.3	73.3	86	68.8	2	6	270	0.00	29.875 
09:50	73.7	73.7	73.7	85	68.9	3	11	248	0.00	29.875 
09:55	73.9	73.9	73.9	84	68.7	2	7	248	0.00	29.873 
10:00	74.0	74.0	74.0	85	69.2	1	5	248	0.00	29.873 
10:05	74.9	74.9	74.9	84	69.7	2	7	68	0.00	29.873 
10:10	75.3	75.3	76.0	80	68.7	2	5	270	0.00	29.872 
10:15	75.8	75.8	76.7	80	69.2	2	7	270	0.00	29.868 
10:20	76.3	76.3	77.5	80	69.7	1	5	248	0.00	29.865 
10:25	76.8	76.8	78.4	77	69.0	2	7	270	0.00	29.864 
10:30	77.7	77.7	79.7	73	68.3	4	11	248	0.00	29.859 
10:35	78.3	78.3	80.5	72	68.5	4	12	270	0.00	29.856 
10:40	78.3	78.3	80.4	70	67.7	5	12	270	0.00	29.856 
10:45	78.5	78.5	80.7	70	67.9	4	10	270	0.00	29.855 
10:50	78.6	78.6	80.8	70	68.0	4	14	248	0.00	29.853 
10:55	78.5	78.5	80.7	70	67.9	4	14	248	0.00	29.852 
11:00	78.5	78.5	80.8	71	68.3	3	9	270	0.00	29.848 
11:05	78.5	78.5	80.7	69	67.5	5	12	270	0.00	29.854 
11:10	78.6	78.6	80.8	70	68.0	4	9	270	0.00	29.851 
11:15	78.6	78.6	80.8	69	67.6	4	10	270	0.00	29.852 
11:20	78.8	78.8	81.1	70	68.2	4	11	270	0.00	29.848 
11:25	79.0	79.0	81.3	69	67.9	3	8	270	0.00	29.844 
11:30	79.0	79.0	81.3	69	67.9	4	11	270	0.00	29.850 
11:35	79.2	79.2	81.6	69	68.1	3	10	270	0.00	29.852 
11:40	79.2	79.2	81.6	69	68.1	3	7	270	0.00	29.854 
11:45	79.4	79.4	81.9	69	68.3	3	9	248	0.00	29.854 
11:50	79.4	79.4	81.9	69	68.3	3	6	270	0.00	29.852 
11:55	79.6	79.6	82.2	69	68.5	3	12	248	0.00	29.846 
12:00	79.4	79.4	81.8	68	67.9	6	16	270	0.00	29.843 
12:05	79.4	79.4	81.8	68	67.9	4	13	248	0.00	29.844 
12:10	79.6	79.6	82.2	69	68.5	3	11	270	0.00	29.845 
12:15	79.8	79.8	82.5	69	68.7	3	10	248	0.00	29.848 
12:20	79.4	79.4	81.9	69	68.3	4	12	270	0.00	29.843 
12:25	79.0	79.0	81.4	70	68.4	3	13	270	0.00	29.849 
12:30	79.0	79.0	81.3	69	67.9	5	15	270	0.00	29.849 
12:35	79.0	79.0	81.4	70	68.4	4	12	270	0.00	29.845 
12:40	78.8	78.8	81.2	71	68.6	1	4	248	0.00	29.844 
12:45	78.6	78.6	80.8	70	68.0	4	11	270	0.00	29.847 
12:50	78.6	78.6	80.9	71	68.4	4	10	248	0.00	29.844 
12:55	78.6	78.6	80.9	71	68.4	4	13	292	0.00	29.845 
13:00	78.3	78.3	80.5	72	68.5	2	11	248	0.00	29.846 
13:05	78.3	78.3	80.5	72	68.5	4	10	270	0.00	29.845 
13:10	78.5	78.5	80.8	72	68.7	3	12	270	0.00	29.842 
13:15	78.6	78.6	81.0	72	68.8	2	7	270	0.00	29.839 
13:20	78.8	78.8	81.3	72	69.0	3	10	248	0.00	29.836 
13:25	78.8	78.8	81.3	72	69.0	3	7	248	0.00	29.833 
13:30	79.0	79.0	81.5	71	68.8	4	10	270	0.00	29.830 
13:35	79.2	79.2	81.9	72	69.4	3	6	270	0.00	29.838 
13:40	79.4	79.4	82.2	72	69.6	4	10	270	0.00	29.839 
13:45	79.4	79.4	82.0	70	68.7	4	12	270	0.00	29.840 
13:50	79.4	79.4	82.1	71	69.2	3	12	270	0.00	29.841 
13:55	79.6	79.6	82.4	71	69.3	2	5	270	0.00	29.840 
14:00	79.9	79.9	82.9	71	69.6	3	10	248	0.00	29.840 
14:05	79.9	79.9	82.8	70	69.2	4	12	248	0.00	29.840 
14:10	79.9	79.9	82.8	70	69.2	4	11	248	0.00	29.839 
14:15	80.1	80.1	83.0	69	69.0	3	11	270	0.00	29.840 
14:20	80.5	80.5	83.8	70	69.8	3	7	270	0.00	29.838 
14:25	81.1	81.1	84.3	67	69.1	4	7	270	0.00	29.834 
14:30	81.2	81.2	84.5	67	69.2	5	10	270	0.00	29.833 
14:35	81.8	81.8	85.5	67	69.7	4	10	270	0.00	29.833 
14:40	82.4	82.4	86.3	66	69.9	3	11	248	0.00	29.831 
14:45	83.0	83.0	87.3	66	70.4	2	5	270	0.00	29.830 
14:50	83.0	83.0	87.1	65	70.0	2	6	270	0.00	29.826 
14:55	83.2	83.2	86.9	63	69.3	4	12	270	0.00	29.824 
15:00	83.2	83.2	87.2	64	69.7	4	10	270	0.00	29.823 
15:05	83.2	83.2	86.9	63	69.3	4	12	292	0.00	29.820 
15:10	83.2	83.2	87.5	65	70.2	3	7	270	0.00	29.817 
15:15	83.4	83.4	87.6	64	69.9	4	17	248	0.00	29.814 
15:20	83.6	83.6	87.6	63	69.6	4	13	270	0.00	29.814 
15:25	83.8	83.8	88.0	63	69.8	3	10	248	0.00	29.810 
15:30	83.8	83.8	87.7	62	69.4	3	7	248	0.00	29.806 
15:35	83.6	83.6	87.6	63	69.6	4	11	270	0.00	29.808 
15:40	83.6	83.6	88.2	65	70.6	3	9	270	0.00	29.808 
15:45	83.6	83.6	88.2	65	70.6	2	9	270	0.00	29.809 
15:50	83.4	83.4	87.8	65	70.4	2	7	225	0.00	29.814 
15:55	83.2	83.2	87.2	64	69.7	3	10	248	0.00	29.813 
16:00	83.2	83.2	87.2	64	69.7	3	13	270	0.00	29.808 
16:05	83.2	83.2	86.9	63	69.3	4	12	270	0.00	29.809 
16:10	83.0	83.0	86.9	64	69.5	3	10	248	0.00	29.812 
16:15	82.8	82.8	86.7	65	69.8	2	7	248	0.00	29.809 
16:20	83.0	83.0	87.1	65	70.0	3	11	270	0.00	29.810 
16:25	82.8	82.8	86.5	64	69.3	3	10	270	0.00	29.812 
16:30	83.0	83.0	87.1	65	70.0	3	9	248	0.00	29.810 
16:35	83.0	83.0	87.1	65	70.0	3	9	270	0.00	29.808 
16:40	83.0	83.0	87.1	65	70.0	1	6	248	0.00	29.809 
16:45	83.0	83.0	87.1	65	70.0	2	9	270	0.00	29.811 
16:50	82.6	82.6	86.6	66	70.1	2	6	270	0.00	29.813 
16:55	82.2	82.2	85.7	65	69.2	2	7	248	0.00	29.816 
17:00	82.0	82.0	85.6	66	69.5	2	9	270	0.00	29.814 
17:05	82.2	82.2	85.7	65	69.2	2	6	248	0.00	29.811 
17:10	82.6	82.6	86.6	66	70.1	2	5	248	0.00	29.813 
17:15	82.2	82.2	86.1	67	70.1	2	4	270	0.00	29.817 
17:20	82.0	82.0	85.8	67	69.9	2	7	248	0.00	29.812 
17:25	81.8	81.8	85.7	68	70.2	2	6	248	0.00	29.813 
17:30	81.8	81.8	85.7	68	70.2	2	6	225	0.00	29.814 
17:35	81.8	81.8	85.7	68	70.2	2	6	248	0.00	29.814 
17:40	81.6	81.6	85.3	68	70.0	2	5	248	0.00	29.816 
17:45	81.6	81.6	85.3	68	70.0	2	5	248	0.00	29.819 
17:50	81.4	81.4	84.8	67	69.4	1	4	248	0.00	29.817 
17:55	81.4	81.4	85.0	68	69.8	1	3	248	0.00	29.819 
18:00	81.6	81.6	85.1	67	69.6	1	7	270	0.00	29.822 
18:05	81.6	81.6	85.3	68	70.0	1	6	270	0.00	29.819 
18:10	81.4	81.4	85.0	68	69.8	1	4	270	0.00	29.822 
18:15	81.4	81.4	85.0	68	69.8	3	7	248	0.00	29.823 
18:20	81.4	81.4	85.0	68	69.8	2	6	270	0.00	29.825 
18:25	81.2	81.2	84.8	69	70.0	1	5	270	0.00	29.828 
18:30	80.9	80.9	84.3	69	69.8	2	5	270	0.00	29.830 
18:35	80.7	80.7	84.0	69	69.6	1	4	248	0.00	29.835 
18:40	80.7	80.7	84.0	69	69.6	2	10	270	0.00	29.837 
18:45	80.5	80.5	83.6	69	69.4	3	6	248	0.00	29.837 
18:50	80.1	80.1	83.1	70	69.4	2	6	248	0.00	29.840 
18:55	79.6	79.6	82.4	71	69.3	2	5	292	0.00	29.840 
19:00	79.4	79.4	82.2	72	69.6	2	6	270	0.00	29.841 
19:05	79.2	79.2	81.9	72	69.4	2	7	270	0.00	29.845 
19:10	79.0	79.0	81.6	73	69.6	1	5	248	0.00	29.849 
19:15	78.8	78.8	81.4	74	69.8	2	6	248	0.00	29.851 
19:20	78.6	78.6	81.1	74	69.6	1	4	248	0.00	29.851 
19:25	78.6	78.6	81.1	74	69.6	2	8	270	0.00	29.850 
19:30	78.5	78.5	81.0	75	69.9	2	5	270	0.00	29.853 
19:35	78.3	78.3	80.7	76	70.1	2	5	270	0.00	29.855 
19:40	78.1	78.1	80.4	77	70.3	1	5	270	0.00	29.857 
19:45	78.1	78.1	80.4	77	70.3	2	11	248	0.00	29.858 
19:50	78.1	78.1	80.4	77	70.3	2	5	270	0.00	29.860 
19:55	77.9	77.9	80.1	78	70.5	2	6	270	0.00	29.862 
20:00	77.9	77.9	80.1	78	70.5	2	9	248	0.00	29.866 
20:05	77.9	77.9	80.1	78	70.5	2	6	270	0.00	29.871 
20:10	77.9	77.9	80.1	79	70.8	1	4	248	0.00	29.874 
20:15	77.7	77.7	79.8	79	70.7	1	3	248	0.00	29.876 
20:20	77.6	77.6	79.6	80	70.9	1	5	248	0.00	29.877 
20:25	77.6	77.6	79.6	80	70.9	1	4	248	0.00	29.876 
20:30	77.6	77.6	79.6	80	70.9	1	4	248	0.00	29.877 
20:35	77.4	77.4	79.2	81	71.1	1	4	248	0.00	29.878 
20:40	77.4	77.4	79.2	81	71.1	1	4	248	0.00	29.882 
20:45	77.4	77.4	79.2	81	71.1	2	6	248	0.00	29.887 
20:50	77.4	77.4	79.2	81	71.1	1	4	248	0.00	29.890 
20:55	77.4	77.4	79.2	82	71.5	2	3	270	0.00	29.890 
21:00	77.2	77.2	78.9	82	71.3	1	5	248	0.00	29.893 
21:05	77.2	77.2	78.9	82	71.3	1	3	248	0.00	29.893 
21:10	77.4	77.4	79.2	82	71.5	2	5	292	0.00	29.901 
21:15	77.2	77.2	78.8	84	72.0	1	5	248	0.01	29.901 
21:20	76.5	76.5	77.3	87	72.3	1	4	270	0.01	29.901 
21:25	76.0	76.0	76.3	88	72.2	1	4	248	0.00	29.898 
21:30	75.6	75.6	75.4	89	72.1	1	4	292	0.00	29.895 
21:35	75.4	75.4	75.0	89	71.9	1	5	270	0.00	29.897 
21:40	75.6	75.6	75.4	89	72.1	1	4	270	0.00	29.900 
21:45	75.4	75.4	75.0	89	71.9	1	6	292	0.00	29.903 
21:50	75.3	75.3	75.0	88	71.5	2	6	270	0.00	29.905 
21:55	75.1	75.1	74.6	88	71.3	1	4	248	0.00	29.906 
22:00	74.9	74.9	74.9	88	71.1	1	4	270	0.00	29.905 
22:05	74.7	74.7	74.7	89	71.2	1	5	270	0.00	29.902 
22:10	74.6	74.6	74.6	89	71.1	1	4	270	0.00	29.904 
22:15	74.4	74.4	74.4	89	70.9	0	2	248	0.00	29.905 
22:20	74.2	74.2	74.2	89	70.7	0	2	248	0.00	29.907 
22:25	73.9	73.9	73.9	88	70.1	1	3	270	0.00	29.909 
22:30	73.9	73.9	73.9	87	69.8	1	4	248	0.00	29.911 
22:35	73.7	73.7	73.7	87	69.6	0	6	22	0.00	29.912 
22:40	73.7	73.7	73.7	88	69.9	1	3	270	0.00	29.915 
22:45	73.5	73.5	73.5	88	69.7	1	2	248	0.00	29.917 
22:50	73.3	73.3	73.3	88	69.5	0	1	248	0.00	29.917 
22:55	73.3	73.3	73.3	89	69.9	0	1	248	0.00	29.917 
23:00	73.2	73.2	73.2	89	69.8	0	3	248	0.00	29.916 
23:05	73.2	73.2	73.2	89	69.8	0	2	248	0.00	29.917 
23:10	73.0	73.0	73.0	89	69.6	0	2	270	0.00	29.916 
23:15	73.0	73.0	73.0	89	69.6	0	2	270	0.00	29.913 
23:20	72.8	72.8	72.8	89	69.4	0	1	270	0.00	29.912 
23:25	72.7	72.7	72.7	90	69.6	0	1	270	0.00	29.912 
23:30	72.5	72.5	72.5	90	69.4	0	1	270	0.00	29.909 
23:35	72.5	72.5	72.5	91	69.7	0	3	270	0.00	29.908 
23:40	72.5	72.5	72.5	91	69.7	0	1	270	0.00	29.904 
23:45	72.3	72.3	72.3	91	69.5	0	0	---	0.00	29.905 
23:50	72.3	72.3	72.3	92	69.8	0	1	270	0.00	29.906 
23:55	72.1	72.1	72.1	92	69.6	0	1	270	0.00	29.906 

CoCoRaHS
IN-AL-39
A2 Web Hosting
Creative Commons License
GoDaddy
Look for:

loaded 2017-10-19 14:18:50 • last modified 2010-11-18 10:43:29
Privacy PolicyDisclaimer
• wx.awcolley.com is powered by PmWiki v.2002016 •
• all content (unless otherwise noted) © 2017 A W Colley